Time;durP1;ratioP1;P1;durP2;ratioP2;P2;SDS_P1;SDS_P2;PMS_P1;PMS_P2;Temp;Humidity;BMP_temperature;BMP_pressure;BME280_temperature;BME280_humidity;BME280_pressure;Samples;Min_cycle;Max_cycle;Signal;HPM_P1;HPM_P2
2022/03/04 00:00:43;;;;;;;15.63;3.78;;;23.00;97.20;;;;;;5031769;28;20487;-66
2022/03/04 00:03:11;;;;;;;8.55;2.00;;;22.90;96.70;;;;;;5014465;28;20045;-66
2022/03/04 00:05:39;;;;;;;17.45;3.47;;;23.00;96.80;;;;;;5031920;28;20108;-66
2022/03/04 00:08:06;;;;;;;12.25;2.10;;;23.00;97.20;;;;;;5014580;28;20099;-66
2022/03/04 00:10:34;;;;;;;9.35;1.95;;;23.00;96.60;;;;;;5014460;28;20049;-66
2022/03/04 00:13:01;;;;;;;7.78;1.33;;;23.00;96.90;;;;;;5030959;28;20033;-66
2022/03/04 00:15:28;;;;;;;6.95;1.60;;;22.90;97.30;;;;;;5031482;28;20129;-66
2022/03/04 00:17:56;;;;;;;9.32;2.25;;;22.90;97.80;;;;;;5031816;28;20026;-66
2022/03/04 00:20:23;;;;;;;12.02;1.67;;;23.00;98.00;;;;;;5032065;28;20033;-66
2022/03/04 00:22:50;;;;;;;10.45;1.98;;;23.10;98.20;;;;;;5014084;28;20037;-67
2022/03/04 00:25:19;;;;;;;13.45;2.10;;;23.00;97.80;;;;;;5014136;28;20057;-66
2022/03/04 00:27:46;;;;;;;15.60;2.47;;;23.00;97.60;;;;;;5030105;28;20120;-66
2022/03/04 00:30:14;;;;;;;11.77;2.42;;;23.00;97.60;;;;;;5031770;28;20044;-67
2022/03/04 00:32:41;;;;;;;9.68;2.45;;;23.00;97.80;;;;;;5014237;28;20521;-67
2022/03/04 00:35:08;;;;;;;10.32;2.55;;;23.00;97.80;;;;;;5031561;28;20395;-67
2022/03/04 00:37:36;;;;;;;11.48;2.30;;;23.00;97.90;;;;;;5014268;28;20400;-67
2022/03/04 00:40:05;;;;;;;13.85;2.28;;;22.90;97.70;;;;;;5031396;28;20048;-67
2022/03/04 00:42:32;;;;;;;17.25;2.25;;;22.90;97.90;;;;;;5014275;28;20439;-67
2022/03/04 00:44:59;;;;;;;11.73;2.28;;;22.90;98.30;;;;;;5031717;28;20064;-67
2022/03/04 00:47:26;;;;;;;10.98;2.10;;;23.00;98.60;;;;;;5031651;28;20346;-67
2022/03/04 00:49:53;;;;;;;17.00;3.17;;;23.10;98.50;;;;;;5031901;28;20092;-67
2022/03/04 00:52:21;;;;;;;16.13;2.78;;;23.00;98.40;;;;;;5031382;28;20041;-66
2022/03/04 00:54:49;;;;;;;22.67;3.60;;;22.90;98.50;;;;;;5030948;28;20491;-67
2022/03/04 00:57:16;;;;;;;19.00;3.47;;;23.00;98.70;;;;;;5031481;28;20037;-67
2022/03/04 00:59:43;;;;;;;15.27;2.78;;;23.00;98.70;;;;;;5013954;28;20503;-66
2022/03/04 01:02:10;;;;;;;13.35;3.00;;;23.00;98.70;;;;;;5031096;28;20033;-67
2022/03/04 01:04:41;;;;;;;18.05;3.28;;;23.00;98.80;;;;;;5031070;28;20053;-67
2022/03/04 01:07:08;;;;;;;13.23;2.60;;;23.10;98.90;;;;;;5030862;28;20026;-67
2022/03/04 01:09:35;;;;;;;13.65;2.92;;;23.10;98.80;;;;;;5031167;28;20033;-67
2022/03/04 01:12:03;;;;;;;14.23;2.55;;;23.00;98.80;;;;;;5029925;28;20026;-68
2022/03/04 01:14:31;;;;;;;18.60;5.45;;;22.90;98.60;;;;;;5013230;28;20500;-66
2022/03/04 01:16:58;;;;;;;14.25;2.05;;;22.90;98.60;;;;;;5030901;28;20451;-67
2022/03/04 01:19:26;;;;;;;20.05;3.45;;;22.80;98.50;;;;;;5030750;28;20029;-66
2022/03/04 01:21:53;;;;;;;14.48;2.70;;;22.80;98.50;;;;;;5030630;28;20087;-67
2022/03/04 01:24:20;;;;;;;10.40;2.30;;;22.80;98.70;;;;;;5030960;28;20060;-66
2022/03/04 01:26:47;;;;;;;12.05;2.15;;;22.90;98.80;;;;;;5030832;28;20037;-66
2022/03/04 01:29:14;;;;;;;9.52;1.98;;;22.80;98.90;;;;;;5030854;28;20116;-66
2022/03/04 01:31:42;;;;;;;13.40;2.40;;;22.90;98.80;;;;;;5030932;28;20036;-66
2022/03/04 01:34:09;;;;;;;11.23;2.53;;;23.00;99.00;;;;;;4996887;28;20099;-66
2022/03/04 01:36:36;;;;;;;9.75;2.67;;;23.10;98.90;;;;;;5030853;28;20511;-66
2022/03/04 01:39:03;;;;;;;8.63;2.00;;;23.10;98.90;;;;;;5029920;28;20038;-66
2022/03/04 01:41:30;;;;;;;5.68;1.90;;;23.00;98.70;;;;;;5031116;28;20036;-67
2022/03/04 01:43:58;;;;;;;10.50;2.65;;;23.00;98.70;;;;;;5031089;28;20045;-67
2022/03/04 01:46:29;;;;;;;11.13;2.50;;;23.00;98.80;;;;;;5030558;28;20079;-66
2022/03/04 01:48:56;;;;;;;15.43;2.92;;;22.90;98.70;;;;;;5013233;28;20502;-67
2022/03/04 01:51:24;;;;;;;7.93;1.75;;;23.00;98.80;;;;;;5012956;28;20025;-67
2022/03/04 01:53:51;;;;;;;8.23;2.25;;;23.00;98.60;;;;;;5030800;28;20050;-67
2022/03/04 01:56:18;;;;;;;9.48;1.90;;;23.10;98.70;;;;;;5012873;28;20029;-67
2022/03/04 01:58:46;;;;;;;10.32;2.10;;;23.20;98.70;;;;;;5030257;28;20044;-67
2022/03/04 02:01:13;;;;;;;7.95;1.80;;;23.10;98.20;;;;;;5030795;28;20033;-67
2022/03/04 02:03:40;;;;;;;10.13;1.85;;;23.10;97.90;;;;;;5012920;28;20052;-67
2022/03/04 02:06:08;;;;;;;13.73;2.97;;;23.20;97.90;;;;;;5012966;28;20048;-67
2022/03/04 02:08:35;;;;;;;10.48;2.35;;;23.10;97.60;;;;;;5030664;28;20029;-67
2022/03/04 02:11:03;;;;;;;9.68;1.90;;;23.00;97.60;;;;;;4996344;28;20034;-66
2022/03/04 02:13:31;;;;;;;10.70;2.88;;;23.10;97.70;;;;;;5030241;28;20033;-66
2022/03/04 02:15:58;;;;;;;11.40;2.88;;;23.20;98.00;;;;;;5012945;28;20067;-66
2022/03/04 02:18:25;;;;;;;12.82;2.30;;;23.30;97.90;;;;;;5030744;28;20440;-65
2022/03/04 02:20:53;;;;;;;10.07;2.42;;;23.10;97.10;;;;;;5030443;28;20084;-66
2022/03/04 02:23:21;;;;;;;7.53;2.13;;;23.20;96.40;;;;;;5030250;28;20048;-66
2022/03/04 02:25:50;;;;;;;7.50;1.90;;;23.30;96.70;;;;;;5012286;28;20029;-66
2022/03/04 02:28:18;;;;;;;12.60;1.83;;;23.30;96.60;;;;;;5012925;28;20088;-66
2022/03/04 02:30:45;;;;;;;12.48;2.47;;;23.30;95.70;;;;;;5030504;28;20034;-66
2022/03/04 02:33:13;;;;;;;13.60;2.38;;;23.30;95.40;;;;;;5030356;28;20034;-66
2022/03/04 02:35:40;;;;;;;5.07;1.30;;;23.40;95.90;;;;;;5049382;23;20053;-65
2022/03/04 02:38:08;;;;;;;5.88;1.42;;;23.40;95.70;;;;;;5031955;28;20041;-63
2022/03/04 02:40:35;;;;;;;4.47;1.40;;;23.30;95.80;;;;;;5049984;28;20029;-63
2022/03/04 02:43:02;;;;;;;5.38;1.38;;;23.30;95.50;;;;;;5049779;28;20036;-62
2022/03/04 02:45:29;;;;;;;5.95;1.95;;;23.30;96.00;;;;;;5049902;28;20040;-62
2022/03/04 02:47:57;;;;;;;6.25;1.30;;;23.40;96.30;;;;;;5031681;28;20033;-65
2022/03/04 02:50:24;;;;;;;10.00;2.20;;;23.40;96.60;;;;;;5052397;28;20434;-62
2022/03/04 02:52:51;;;;;;;6.93;1.88;;;23.50;96.70;;;;;;5053361;28;20037;-63
2022/03/04 02:55:18;;;;;;;8.63;2.13;;;23.50;96.70;;;;;;5053353;28;20040;-63
2022/03/04 02:57:46;;;;;;;9.50;2.00;;;23.50;96.10;;;;;;5035510;28;20036;-65
2022/03/04 03:00:15;;;;;;;9.68;2.42;;;23.50;95.40;;;;;;5053240;28;20025;-66
2022/03/04 03:02:42;;;;;;;9.68;1.90;;;23.60;95.80;;;;;;5053608;28;20040;-64
2022/03/04 03:05:10;;;;;;;13.40;2.42;;;23.70;95.40;;;;;;5035461;28;20049;-64
2022/03/04 03:07:37;;;;;;;6.25;1.83;;;23.70;95.00;;;;;;5053401;28;20112;-65
2022/03/04 03:10:04;;;;;;;9.00;1.80;;;23.60;95.00;;;;;;5053347;28;20112;-65
2022/03/04 03:12:32;;;;;;;8.52;2.05;;;23.70;95.00;;;;;;5052996;28;20029;-65
2022/03/04 03:14:59;;;;;;;5.53;1.13;;;23.70;94.00;;;;;;5053275;28;20032;-65
2022/03/04 03:17:26;;;;;;;7.07;1.77;;;23.50;94.60;;;;;;5052676;28;20033;-65
2022/03/04 03:19:53;;;;;;;6.65;1.30;;;23.50;95.30;;;;;;5053293;28;20031;-64
2022/03/04 03:22:21;;;;;;;14.23;2.00;;;23.50;94.90;;;;;;5052777;28;20032;-64
2022/03/04 03:24:48;;;;;;;10.35;1.77;;;23.50;95.20;;;;;;5052698;28;20041;-65
2022/03/04 03:27:16;;;;;;;9.40;1.60;;;23.50;95.20;;;;;;5053183;28;20061;-65
2022/03/04 03:29:43;;;;;;;13.88;2.67;;;23.60;95.40;;;;;;5052650;28;20087;-65
2022/03/04 03:32:10;;;;;;;15.85;2.53;;;23.70;95.30;;;;;;5052768;28;20083;-65
2022/03/04 03:34:38;;;;;;;7.38;1.42;;;23.80;95.00;;;;;;5052484;28;20136;-65
2022/03/04 03:37:06;;;;;;;7.70;1.70;;;23.80;94.50;;;;;;5052756;28;20033;-64
2022/03/04 03:39:33;;;;;;;6.70;1.52;;;23.80;93.60;;;;;;5052627;28;20026;-64
2022/03/04 03:42:00;;;;;;;8.43;2.10;;;23.90;93.00;;;;;;5052335;28;20314;-65
2022/03/04 03:44:27;;;;;;;10.27;2.38;;;23.90;92.40;;;;;;5051992;28;20073;-65
2022/03/04 03:46:55;;;;;;;12.57;2.47;;;24.00;93.10;;;;;;5052644;28;20024;-64
2022/03/04 03:49:22;;;;;;;10.23;2.50;;;24.00;93.50;;;;;;5052567;28;20033;-65
2022/03/04 03:51:50;;;;;;;17.88;2.92;;;24.00;93.20;;;;;;5035039;28;20112;-65
2022/03/04 03:54:17;;;;;;;4.72;1.48;;;24.00;93.80;;;;;;5034707;28;20025;-64
2022/03/04 03:56:44;;;;;;;8.48;2.15;;;23.80;93.80;;;;;;5052154;28;20477;-64
2022/03/04 03:59:11;;;;;;;5.90;1.83;;;23.60;95.20;;;;;;5034592;28;20375;-65
2022/03/04 04:01:39;;;;;;;8.90;1.80;;;23.40;95.40;;;;;;5051519;28;20490;-64
2022/03/04 04:04:17;;;;;;;6.13;1.70;;;23.40;96.10;;;;;;5052184;28;20048;-64
2022/03/04 04:06:44;;;;;;;10.43;2.35;;;23.30;96.30;;;;;;5046596;28;20029;-64
2022/03/04 04:09:11;;;;;;;8.00;1.80;;;23.30;96.50;;;;;;5034826;28;20030;-64
2022/03/04 04:11:39;;;;;;;13.27;2.25;;;23.50;96.70;;;;;;5045853;28;20589;-64
2022/03/04 04:14:08;;;;;;;8.45;1.75;;;23.50;96.70;;;;;;5033411;28;20041;-64
2022/03/04 04:16:35;;;;;;;10.38;2.22;;;23.50;96.30;;;;;;5051872;28;20037;-64
2022/03/04 04:19:02;;;;;;;16.88;9.23;;;23.40;96.10;;;;;;5051911;28;20498;-64
2022/03/04 04:21:30;;;;;;;10.23;3.03;;;23.40;95.20;;;;;;5051675;28;20130;-64
2022/03/04 04:23:57;;;;;;;10.65;1.95;;;23.50;95.80;;;;;;5050929;28;20076;-64
2022/03/04 04:26:26;;;;;;;9.35;1.88;;;23.60;95.50;;;;;;5033962;28;20037;-64
2022/03/04 04:28:53;;;;;;;7.35;1.60;;;23.70;94.50;;;;;;5051623;28;20044;-64
2022/03/04 04:31:20;;;;;;;8.90;1.60;;;23.70;94.50;;;;;;5051167;28;20055;-64
2022/03/04 04:33:47;;;;;;;6.78;1.55;;;23.70;93.10;;;;;;5050830;28;20049;-64
2022/03/04 04:36:14;;;;;;;6.35;1.55;;;23.70;93.00;;;;;;5050698;28;20041;-64
2022/03/04 04:38:41;;;;;;;8.65;2.03;;;23.80;93.10;;;;;;5051601;28;20047;-64
2022/03/04 04:41:09;;;;;;;7.45;1.80;;;23.80;92.40;;;;;;5051398;28;20034;-64
2022/03/04 04:43:36;;;;;;;8.35;1.70;;;23.80;92.70;;;;;;5049909;28;20037;-66
2022/03/04 04:46:04;;;;;;;9.95;1.80;;;23.80;93.60;;;;;;5050951;28;20040;-64
2022/03/04 04:48:31;;;;;;;7.00;1.83;;;23.70;94.10;;;;;;5048408;28;20083;-65
2022/03/04 04:51:01;;;;;;;4.50;1.58;;;23.70;94.70;;;;;;5034714;28;20040;-65
2022/03/04 04:53:29;;;;;;;8.20;2.15;;;23.50;94.50;;;;;;5045089;28;20040;-65
2022/03/04 04:55:56;;;;;;;5.85;1.63;;;23.50;94.90;;;;;;5045288;28;20034;-65
2022/03/04 10:17:15;;;;;;;17.75;2.55;;;22.50;99.10;;;;;;5043609;28;20064;-66
2022/03/04 10:19:54;;;;;;;12.85;2.47;;;22.50;99.00;;;;;;5053438;28;20422;-65
2022/03/04 10:22:22;;;;;;;14.40;2.65;;;22.40;99.00;;;;;;5053107;28;20064;-66
2022/03/04 10:24:49;;;;;;;12.18;2.80;;;22.50;99.00;;;;;;5052690;28;20040;-65
2022/03/04 10:27:17;;;;;;;12.93;2.70;;;22.50;99.10;;;;;;5033880;28;20022;-64
2022/03/04 10:29:48;;;;;;;22.55;4.47;;;22.40;99.00;;;;;;5049323;28;20041;-65
2022/03/04 10:32:21;;;;;;;13.70;2.78;;;22.40;99.10;;;;;;5053781;28;20040;-65
2022/03/04 10:35:18;;;;;;;11.27;3.17;;;22.40;99.00;;;;;;5054446;28;20064;-64
2022/03/04 10:37:56;;;;;;;13.60;3.00;;;22.40;99.00;;;;;;5016898;28;20047;-65
2022/03/04 10:40:30;;;;;;;13.77;3.05;;;22.40;99.00;;;;;;5023361;28;20047;-65
2022/03/04 10:43:06;;;;;;;19.45;4.07;;;22.40;99.00;;;;;;5035704;28;20495;-64
2022/03/04 10:45:34;;;;;;;18.75;3.20;;;22.50;99.00;;;;;;5033805;28;20045;-64
2022/03/04 10:48:03;;;;;;;21.05;2.83;;;22.40;99.00;;;;;;5020992;28;20029;-65
2022/03/04 10:50:34;;;;;;;21.83;4.10;;;22.40;99.10;;;;;;5053783;28;20033;-65
2022/03/04 10:53:02;;;;;;;16.58;2.95;;;22.40;99.10;;;;;;5053500;28;20044;-65
2022/03/04 10:55:38;;;;;;;13.80;3.50;;;22.40;99.10;;;;;;5052439;28;20029;-64
2022/03/04 10:58:17;;;;;;;15.63;3.75;;;22.40;99.10;;;;;;5053248;28;20029;-63
2022/03/04 11:00:47;;;;;;;16.75;3.08;;;22.40;99.00;;;;;;5053382;28;20032;-67
2022/03/04 11:03:28;;;;;;;17.08;3.15;;;22.40;99.00;;;;;;5033983;28;20052;-64
2022/03/04 11:06:00;;;;;;;15.25;3.13;;;22.30;99.00;;;;;;5053148;28;20136;-65
2022/03/04 11:08:27;;;;;;;12.98;3.17;;;22.30;99.00;;;;;;5034835;28;20036;-64
2022/03/04 11:10:55;;;;;;;17.83;3.35;;;22.40;99.00;;;;;;5046773;28;20367;-64
2022/03/04 11:13:23;;;;;;;15.50;3.30;;;22.40;99.00;;;;;;5035638;28;20048;-64
2022/03/04 11:15:51;;;;;;;15.35;3.22;;;22.40;99.00;;;;;;5035521;28;20124;-64
2022/03/04 11:18:20;;;;;;;16.45;2.95;;;22.40;99.00;;;;;;5035200;28;20037;-64
2022/03/04 11:20:49;;;;;;;13.15;3.40;;;22.40;99.00;;;;;;5052732;28;20568;-64
2022/03/04 11:23:22;;;;;;;13.48;2.85;;;22.40;99.00;;;;;;5052065;28;20135;-67
2022/03/04 11:25:55;;;;;;;10.75;2.67;;;22.40;99.00;;;;;;5044133;28;20029;-63
2022/03/04 11:28:25;;;;;;;20.13;3.30;;;22.40;99.00;;;;;;5035419;28;20440;-64
2022/03/04 11:30:58;;;;;;;16.73;2.90;;;22.40;99.00;;;;;;5019181;28;20040;-64
2022/03/04 11:33:32;;;;;;;15.68;2.63;;;22.40;99.00;;;;;;5019414;28;20041;-63
2022/03/04 11:36:07;;;;;;;15.50;2.97;;;22.40;99.00;;;;;;5015210;28;20064;-64
2022/03/04 11:38:49;;;;;;;14.65;3.03;;;22.40;99.00;;;;;;5015379;28;20514;-64
2022/03/04 11:41:34;;;;;;;18.10;2.88;;;22.40;98.90;;;;;;5039469;28;20379;-64
2022/03/04 11:44:12;;;;;;;18.25;2.85;;;22.30;99.00;;;;;;5052641;28;20049;-65
2022/03/04 11:47:02;;;;;;;12.95;2.78;;;22.30;99.00;;;;;;5033460;28;20171;-65
2022/03/04 11:49:35;;;;;;;15.10;2.70;;;22.30;99.00;;;;;;5032835;28;20049;-65
2022/03/04 11:52:12;;;;;;;11.70;2.60;;;22.30;99.00;;;;;;5032653;28;20048;-64
2022/03/04 11:54:43;;;;;;;14.20;2.83;;;22.30;99.00;;;;;;5032849;28;20037;-64
2022/03/04 11:57:20;;;;;;;19.70;3.17;;;22.30;99.10;;;;;;5032603;28;20454;-64
2022/03/04 12:00:17;;;;;;;22.85;3.20;;;22.30;99.10;;;;;;5032271;28;20098;-63
2022/03/04 12:02:50;;;;;;;23.75;3.80;;;22.30;99.10;;;;;;5032480;28;20091;-64
2022/03/04 12:05:25;;;;;;;20.83;3.58;;;22.30;99.10;;;;;;5031471;28;20038;-63
2022/03/04 12:08:07;;;;;;;24.02;3.92;;;22.40;99.20;;;;;;5032738;28;20041;-63
2022/03/04 12:10:52;;;;;;;14.38;3.10;;;22.30;99.10;;;;;;5032411;28;20491;-62
2022/03/04 12:13:31;;;;;;;14.48;3.00;;;22.30;99.20;;;;;;5032167;28;20036;-63
2022/03/04 12:16:03;;;;;;;11.95;2.85;;;22.30;99.20;;;;;;5043099;28;20129;-62
2022/03/04 12:18:31;;;;;;;12.60;2.70;;;22.30;99.20;;;;;;5052431;28;20025;-63
2022/03/04 12:21:06;;;;;;;11.45;2.78;;;22.30;99.20;;;;;;5052164;28;20112;-63
2022/03/04 12:23:47;;;;;;;13.10;2.50;;;22.30;99.20;;;;;;5051655;28;20543;-63
2022/03/04 12:26:26;;;;;;;13.57;3.28;;;22.30;99.20;;;;;;5038457;28;20091;-62
2022/03/04 12:29:04;;;;;;;10.85;2.70;;;22.30;99.20;;;;;;5030589;28;20034;-63
2022/03/04 12:31:38;;;;;;;14.15;3.22;;;22.30;99.20;;;;;;5032166;28;20476;-63
2022/03/04 12:34:27;;;;;;;16.83;3.00;;;22.30;99.20;;;;;;5031884;28;20116;-63
2022/03/04 12:36:54;;;;;;;10.70;2.67;;;22.20;99.20;;;;;;5031853;28;20041;-63
2022/03/04 12:39:22;;;;;;;12.32;3.15;;;22.30;99.20;;;;;;5031593;28;20029;-63
2022/03/04 12:41:55;;;;;;;13.70;3.05;;;22.20;99.20;;;;;;5050906;28;20060;-63
2022/03/04 12:44:22;;;;;;;17.00;3.47;;;22.20;99.20;;;;;;5051452;28;20049;-63
2022/03/04 12:46:50;;;;;;;23.42;4.28;;;22.20;99.20;;;;;;5034036;28;20029;-63
2022/03/04 12:49:19;;;;;;;18.27;3.03;;;22.20;99.20;;;;;;5033741;28;20039;-63
2022/03/04 12:51:46;;;;;;;15.80;3.10;;;22.20;99.20;;;;;;5049145;28;20072;-63
2022/03/04 12:54:20;;;;;;;19.98;4.00;;;22.20;99.20;;;;;;5051789;28;20040;-63
2022/03/04 12:57:06;;;;;;;16.67;3.60;;;22.20;99.20;;;;;;5051491;28;20028;-63
2022/03/04 12:59:44;;;;;;;25.75;3.83;;;22.20;99.20;;;;;;5033812;28;20265;-63
2022/03/04 13:02:11;;;;;;;20.05;3.47;;;22.10;99.20;;;;;;5043564;28;20037;-63
2022/03/04 13:04:38;;;;;;;16.83;3.35;;;22.10;99.20;;;;;;5033414;28;20056;-63
2022/03/04 13:07:06;;;;;;;13.48;3.38;;;22.20;99.20;;;;;;5047338;28;20033;-62
2022/03/04 13:09:33;;;;;;;16.00;3.35;;;22.20;99.30;;;;;;5031188;28;20033;-62
2022/03/04 13:12:05;;;;;;;24.05;3.90;;;22.20;99.30;;;;;;5014056;28;20029;-63
2022/03/04 13:14:33;;;;;;;12.02;3.35;;;22.20;99.30;;;;;;5031318;28;20372;-63
2022/03/04 13:17:00;;;;;;;14.50;3.45;;;22.20;99.30;;;;;;5031046;28;20049;-63
2022/03/04 13:19:32;;;;;;;16.58;3.10;;;22.20;99.30;;;;;;5013537;28;20109;-63
2022/03/04 13:22:00;;;;;;;15.07;3.88;;;22.20;99.30;;;;;;5047539;28;20068;-63
2022/03/04 13:24:29;;;;;;;15.65;3.50;;;22.20;99.30;;;;;;5031932;28;20041;-63
2022/03/04 13:27:07;;;;;;;15.32;3.60;;;22.20;99.30;;;;;;5033256;28;20120;-63
2022/03/04 13:29:55;;;;;;;15.07;3.53;;;22.20;99.30;;;;;;5031358;28;20034;-63
2022/03/04 13:32:27;;;;;;;19.42;3.55;;;22.20;99.30;;;;;;5030466;28;20128;-63
2022/03/04 13:34:57;;;;;;;18.83;3.50;;;22.20;99.30;;;;;;5030110;28;20391;-62
2022/03/04 13:37:28;;;;;;;20.23;3.92;;;22.20;99.30;;;;;;5031033;28;20037;-63
2022/03/04 13:40:00;;;;;;;16.20;3.65;;;22.30;99.30;;;;;;5048635;28;20105;-63
2022/03/04 13:42:28;;;;;;;16.33;3.50;;;22.20;99.30;;;;;;5050975;28;20031;-63
2022/03/04 13:44:56;;;;;;;17.83;4.20;;;22.30;99.30;;;;;;5050284;28;20102;-63
2022/03/04 13:47:32;;;;;;;21.02;4.28;;;22.30;99.40;;;;;;5051037;28;20052;-63
2022/03/04 13:49:59;;;;;;;17.48;3.58;;;22.30;99.40;;;;;;5050791;28;20037;-63
2022/03/04 13:52:26;;;;;;;35.10;5.10;;;22.30;99.40;;;;;;5050767;28;20033;-63
2022/03/04 13:55:00;;;;;;;32.33;5.13;;;22.30;99.40;;;;;;5048897;28;20068;-63
2022/03/04 13:57:37;;;;;;;22.63;4.05;;;22.30;99.40;;;;;;5050275;28;20041;-63
2022/03/04 14:00:12;;;;;;;25.33;4.88;;;22.30;99.40;;;;;;5045863;28;20037;-63
2022/03/04 14:02:41;;;;;;;20.83;4.38;;;22.30;99.40;;;;;;5030677;28;20034;-63
2022/03/04 14:05:10;;;;;;;25.45;5.65;;;22.30;99.40;;;;;;5030934;28;20045;-63
2022/03/04 14:07:45;;;;;;;17.92;4.50;;;22.30;99.40;;;;;;5031034;28;20033;-63
2022/03/04 14:10:16;;;;;;;27.38;4.47;;;22.30;99.40;;;;;;5030679;28;20443;-63
2022/03/04 14:12:44;;;;;;;18.05;4.00;;;22.30;99.40;;;;;;5030647;28;20037;-63
2022/03/04 14:15:11;;;;;;;31.58;5.18;;;22.30;99.40;;;;;;5049939;28;20040;-63
2022/03/04 14:17:56;;;;;;;23.58;4.78;;;22.30;99.40;;;;;;5050507;28;20045;-63
2022/03/04 14:20:24;;;;;;;36.47;4.63;;;22.30;99.40;;;;;;5050713;28;20040;-63
2022/03/04 14:22:51;;;;;;;26.23;4.85;;;22.30;99.40;;;;;;5014715;28;20033;-62
2022/03/04 14:25:18;;;;;;;22.30;3.95;;;22.30;99.40;;;;;;5030469;28;20084;-63
2022/03/04 14:27:48;;;;;;;28.20;5.10;;;22.30;99.40;;;;;;5013266;28;20034;-63
2022/03/04 14:30:20;;;;;;;28.83;4.13;;;22.30;99.40;;;;;;5013843;28;20034;-63
2022/03/04 14:32:49;;;;;;;22.75;4.03;;;22.30;99.40;;;;;;5030782;28;20025;-63
2022/03/04 14:35:17;;;;;;;21.58;4.05;;;22.30;99.40;;;;;;5030401;28;20042;-63
2022/03/04 14:37:44;;;;;;;22.77;4.57;;;22.30;99.40;;;;;;5044163;28;20033;-63
2022/03/04 14:40:14;;;;;;;20.10;4.10;;;22.30;99.40;;;;;;5032825;28;20522;-63
2022/03/04 14:42:41;;;;;;;;;;;22.30;99.40;;;;;;5051192;28;20041;-63
2022/03/04 14:45:08;;;;;;;37.22;4.68;;;22.30;99.40;;;;;;5016966;28;19949;-63
2022/03/04 14:47:36;;;;;;;20.30;3.58;;;22.30;99.40;;;;;;5036335;28;20065;-63
2022/03/04 14:50:04;;;;;;;16.50;3.22;;;22.30;99.40;;;;;;5033837;28;20038;-63
2022/03/04 14:52:31;;;;;;;18.08;3.63;;;22.30;99.40;;;;;;5034072;28;20045;-62
2022/03/04 14:54:58;;;;;;;16.83;3.10;;;22.30;99.40;;;;;;5016574;28;20061;-63
2022/03/04 14:57:26;;;;;;;20.83;3.63;;;22.20;99.40;;;;;;5026402;28;20041;-63
2022/03/04 14:59:54;;;;;;;17.90;3.40;;;22.20;99.40;;;;;;5053849;28;20056;-63
2022/03/04 15:02:21;;;;;;;20.77;3.63;;;22.20;99.40;;;;;;5053525;28;20091;-63
2022/03/04 15:04:49;;;;;;;13.13;3.25;;;22.30;99.40;;;;;;5035945;28;20398;-63
2022/03/04 15:07:16;;;;;;;21.75;4.43;;;22.20;99.40;;;;;;5042277;28;20033;-63
2022/03/04 15:09:43;;;;;;;22.50;3.78;;;22.30;99.40;;;;;;5033441;28;20064;-63
2022/03/04 15:12:11;;;;;;;23.73;4.97;;;22.30;99.40;;;;;;5033929;28;20510;-63
2022/03/04 15:14:38;;;;;;;17.90;3.65;;;22.30;99.40;;;;;;5016310;28;20034;-63
2022/03/04 15:17:07;;;;;;;21.45;3.72;;;22.30;99.40;;;;;;5015718;28;20099;-63
2022/03/04 15:19:36;;;;;;;20.27;3.58;;;22.20;99.40;;;;;;5033899;28;20038;-63
2022/03/04 15:22:04;;;;;;;19.05;3.17;;;22.30;99.50;;;;;;5044778;28;20116;-63
2022/03/04 15:24:31;;;;;;;18.27;3.40;;;22.20;99.50;;;;;;5053006;28;20581;-63
2022/03/04 15:26:59;;;;;;;15.63;3.33;;;22.20;99.50;;;;;;5053034;28;20029;-63
2022/03/04 15:29:26;;;;;;;19.88;3.78;;;22.20;99.40;;;;;;5052545;28;20513;-63
2022/03/04 15:31:56;;;;;;;23.20;3.92;;;22.20;99.50;;;;;;5035475;28;20033;-63
2022/03/04 15:34:23;;;;;;;19.48;3.35;;;22.20;99.50;;;;;;5053085;28;20450;-63
2022/03/04 15:36:51;;;;;;;12.63;2.85;;;22.20;99.50;;;;;;5040866;28;20049;-63
2022/03/04 15:39:19;;;;;;;12.60;2.95;;;22.20;99.50;;;;;;5031419;28;20032;-62
2022/03/04 15:41:49;;;;;;;9.70;2.47;;;22.20;99.40;;;;;;5051318;28;20069;-62
2022/03/04 15:44:21;;;;;;;8.05;2.20;;;22.20;99.50;;;;;;5035568;28;20044;-62
2022/03/04 15:46:48;;;;;;;9.45;2.10;;;22.20;99.50;;;;;;5041235;28;20041;-63
2022/03/04 15:49:15;;;;;;;3.50;1.50;;;22.20;99.50;;;;;;5015399;28;20136;-63
2022/03/04 15:51:43;;;;;;;5.82;1.67;;;22.20;99.40;;;;;;5033198;28;20030;-63
2022/03/04 15:54:10;;;;;;;6.00;1.73;;;22.10;99.40;;;;;;5032983;28;20032;-63
2022/03/04 15:56:41;;;;;;;7.30;1.67;;;22.10;99.40;;;;;;5031519;28;20033;-63
2022/03/04 15:59:08;;;;;;;4.97;1.38;;;22.10;99.40;;;;;;5032761;28;20036;-63
2022/03/04 16:01:37;;;;;;;5.72;1.63;;;22.00;99.40;;;;;;5016525;28;20041;-63
2022/03/04 16:04:10;;;;;;;2.70;1.60;;;22.00;99.40;;;;;;4999431;28;20046;-63
2022/03/04 16:06:38;;;;;;;3.40;1.38;;;22.00;99.40;;;;;;5032486;28;20053;-63
2022/03/04 16:09:06;;;;;;;3.05;1.55;;;22.00;99.40;;;;;;5031844;28;20499;-63
2022/03/04 16:11:36;;;;;;;6.88;1.70;;;21.90;99.30;;;;;;5041514;28;20025;-63
2022/03/04 16:14:04;;;;;;;4.20;1.70;;;22.00;99.30;;;;;;5052278;28;20074;-63
2022/03/04 16:16:33;;;;;;;6.50;1.55;;;21.90;99.30;;;;;;5027412;28;20045;-63
2022/03/04 16:19:04;;;;;;;2.80;1.40;;;21.90;99.30;;;;;;5045170;28;20029;-63
2022/03/04 16:21:32;;;;;;;5.82;1.80;;;21.90;99.30;;;;;;5017627;28;20398;-63
2022/03/04 16:23:59;;;;;;;3.25;1.85;;;21.90;99.30;;;;;;5034142;28;20044;-63
2022/03/04 16:26:26;;;;;;;6.43;1.90;;;21.90;99.40;;;;;;5028456;28;20043;-62
2022/03/04 16:28:54;;;;;;;5.53;1.80;;;22.00;99.40;;;;;;5032192;28;20029;-63
2022/03/04 16:31:22;;;;;;;10.18;2.20;;;21.90;99.30;;;;;;5032224;28;20030;-62
2022/03/04 16:33:50;;;;;;;5.10;2.03;;;21.80;99.30;;;;;;5031519;28;20380;-63
2022/03/04 16:36:17;;;;;;;8.27;2.45;;;21.80;99.30;;;;;;5031644;28;20933;-63
2022/03/04 16:38:45;;;;;;;12.15;2.90;;;21.80;99.30;;;;;;5014556;28;20038;-63
2022/03/04 16:41:12;;;;;;;11.35;2.90;;;21.80;99.30;;;;;;5038177;28;20541;-63
2022/03/04 16:43:39;;;;;;;10.98;3.55;;;21.80;99.30;;;;;;5033416;28;20405;-63
2022/03/04 16:46:06;;;;;;;7.68;3.10;;;21.80;99.30;;;;;;5031660;28;20030;-63
2022/03/04 16:48:35;;;;;;;8.65;3.08;;;21.80;99.30;;;;;;5031885;28;20099;-63
2022/03/04 16:51:02;;;;;;;12.98;3.63;;;21.70;99.30;;;;;;5033899;28;20048;-63
2022/03/04 16:53:30;;;;;;;7.70;2.92;;;21.70;99.30;;;;;;5031453;28;20040;-63
2022/03/04 16:55:58;;;;;;;9.57;3.13;;;21.70;99.30;;;;;;5031510;28;20072;-63
2022/03/04 16:58:26;;;;;;;12.05;3.60;;;21.80;99.30;;;;;;5033023;28;20068;-63
2022/03/04 17:00:53;;;;;;;6.55;3.13;;;21.80;99.30;;;;;;5031181;28;20091;-63
2022/03/04 17:03:20;;;;;;;17.92;3.75;;;21.80;99.20;;;;;;5031702;28;20036;-63
2022/03/04 17:05:47;;;;;;;7.00;3.10;;;21.70;99.30;;;;;;5031320;28;20044;-63
2022/03/04 17:08:18;;;;;;;8.57;3.33;;;21.70;99.30;;;;;;5049106;28;20379;-63
2022/03/04 17:10:45;;;;;;;14.40;3.20;;;21.70;99.30;;;;;;5033306;28;20029;-63
2022/03/04 17:13:12;;;;;;;5.82;3.00;;;21.70;99.30;;;;;;5000473;28;20036;-63
2022/03/04 17:15:40;;;;;;;10.27;3.15;;;21.70;99.30;;;;;;5051307;28;20456;-62
2022/03/04 17:18:07;;;;;;;8.95;3.00;;;21.80;99.30;;;;;;5051262;28;20037;-63
2022/03/04 17:20:35;;;;;;;5.80;2.88;;;21.80;99.30;;;;;;5033588;28;20029;-63
2022/03/04 17:23:02;;;;;;;10.00;2.90;;;21.80;99.30;;;;;;5014019;28;20045;-63
2022/03/04 17:25:29;;;;;;;6.63;2.65;;;21.80;99.30;;;;;;5031406;28;20037;-63
2022/03/04 17:27:59;;;;;;;9.00;2.53;;;21.80;99.20;;;;;;5030837;28;20571;-62
2022/03/04 17:30:27;;;;;;;4.95;2.30;;;21.80;99.20;;;;;;5031496;28;20083;-62
2022/03/04 17:32:56;;;;;;;6.60;2.75;;;21.80;99.20;;;;;;5031097;28;20036;-62
2022/03/04 17:35:24;;;;;;;5.63;2.30;;;21.80;99.20;;;;;;5038212;28;20048;-63
2022/03/04 17:37:51;;;;;;;5.07;2.38;;;21.80;99.20;;;;;;5050653;28;20033;-63
2022/03/04 17:40:18;;;;;;;9.25;2.45;;;21.90;99.20;;;;;;5050349;28;20037;-63
2022/03/04 17:42:45;;;;;;;8.77;2.40;;;21.90;99.20;;;;;;5050844;28;20049;-62
2022/03/04 17:45:13;;;;;;;11.52;2.80;;;21.90;99.20;;;;;;5050848;28;20033;-63
2022/03/04 17:47:40;;;;;;;7.28;2.30;;;21.90;99.20;;;;;;5050801;28;20473;-62
2022/03/04 17:50:07;;;;;;;7.47;2.40;;;21.90;99.20;;;;;;5042928;28;20045;-62
2022/03/04 17:52:35;;;;;;;7.97;2.38;;;21.90;99.10;;;;;;5012315;28;20033;-63
2022/03/04 17:55:02;;;;;;;10.35;2.50;;;21.80;99.10;;;;;;5050524;28;20395;-62
2022/03/04 17:57:29;;;;;;;6.82;2.50;;;21.90;99.20;;;;;;5033014;28;20063;-62
2022/03/04 17:59:56;;;;;;;7.70;2.92;;;21.90;99.20;;;;;;5050605;28;20029;-62
2022/03/04 18:02:23;;;;;;;8.00;3.38;;;21.90;99.10;;;;;;5050917;28;20041;-62
2022/03/04 18:04:51;;;;;;;8.48;3.63;;;21.80;99.10;;;;;;5047859;28;20049;-63
2022/03/04 18:07:19;;;;;;;6.10;3.30;;;21.80;99.00;;;;;;5030242;28;20364;-63
2022/03/04 18:09:46;;;;;;;9.00;3.53;;;21.80;99.10;;;;;;5030579;28;20080;-63